createdAt,value
2023-04-04T00:00:21.423Z,63.84
2023-04-04T00:02:49.784Z,63.60
2023-04-04T00:05:16.466Z,64.45
2023-04-04T00:07:46.387Z,64.80
2023-04-04T00:10:13.032Z,65.86
2023-04-04T00:12:39.354Z,66.16
2023-04-04T00:15:06.445Z,65.88
2023-04-04T00:17:33.107Z,65.96
2023-04-04T00:19:59.545Z,66.42
2023-04-04T00:22:25.926Z,66.82
2023-04-04T00:24:52.267Z,67.09
2023-04-04T00:27:18.631Z,67.00
2023-04-04T00:29:45.442Z,66.98
2023-04-04T00:32:11.893Z,67.27
2023-04-04T00:34:38.473Z,66.75
2023-04-04T00:37:07.390Z,67.33
2023-04-04T00:39:34.294Z,67.42
2023-04-04T00:42:00.913Z,67.35
2023-04-04T00:44:27.349Z,67.84
2023-04-04T00:46:53.838Z,67.47
2023-04-04T00:49:20.221Z,67.71
2023-04-04T00:51:46.701Z,67.88
2023-04-04T00:54:13.234Z,67.54
2023-04-04T00:56:39.973Z,67.63
2023-04-04T00:59:07.535Z,67.44
2023-04-04T01:01:34.089Z,67.45
2023-04-04T01:04:00.597Z,67.90
2023-04-04T01:06:27.937Z,67.65
2023-04-04T01:08:54.539Z,67.79
2023-04-04T01:11:21.365Z,68.58
2023-04-04T01:13:48.016Z,68.72
2023-04-04T01:16:14.450Z,68.96
2023-04-04T01:18:42.429Z,69.71
2023-04-04T01:21:12.276Z,69.84
2023-04-04T01:24:02.254Z,70.58
2023-04-04T01:26:29.362Z,70.78
2023-04-04T01:28:56.972Z,70.85
2023-04-04T01:31:27.689Z,70.68
2023-04-04T01:34:06.731Z,71.03
2023-04-04T01:36:43.294Z,70.61
2023-04-04T01:39:25.097Z,70.50
2023-04-04T01:41:51.985Z,70.10
2023-04-04T01:44:19.122Z,70.49
2023-04-04T01:46:45.537Z,70.61
2023-04-04T01:49:12.076Z,70.88
2023-04-04T01:51:39.096Z,71.22
2023-04-04T01:54:05.473Z,71.65
2023-04-04T01:56:32.917Z,71.13
2023-04-04T01:58:59.294Z,71.38
2023-04-04T02:01:25.757Z,70.92
2023-04-04T02:03:52.792Z,70.81
2023-04-04T02:06:19.305Z,70.86
2023-04-04T02:08:45.731Z,71.10
2023-04-04T02:11:12.336Z,71.25
2023-04-04T02:13:41.252Z,72.24
2023-04-04T02:16:07.634Z,72.06
2023-04-04T02:18:34.398Z,72.89
2023-04-04T02:21:00.989Z,72.91
2023-04-04T02:23:27.437Z,73.00
2023-04-04T02:25:53.784Z,73.02
2023-04-04T02:28:20.576Z,72.84
2023-04-04T02:30:47.172Z,72.81
2023-04-04T02:33:13.596Z,72.66
2023-04-04T02:35:40.046Z,72.54
2023-04-04T02:38:06.604Z,72.71
2023-04-04T02:40:32.972Z,72.41
2023-04-04T02:42:59.312Z,72.68
2023-04-04T02:45:25.920Z,72.87
2023-04-04T02:47:52.928Z,72.04
2023-04-04T02:50:19.317Z,71.98
2023-04-04T02:52:46.275Z,72.76
2023-04-04T02:55:12.642Z,72.38
2023-04-04T02:57:39.078Z,71.98
2023-04-04T03:00:07.093Z,71.77
2023-04-04T03:02:33.584Z,71.64
2023-04-04T03:05:00.062Z,71.17
2023-04-04T03:07:26.748Z,71.25
2023-04-04T03:09:53.149Z,71.27
2023-04-04T03:12:22.528Z,71.51
2023-04-04T03:14:48.886Z,72.25
2023-04-04T03:17:15.347Z,71.30
2023-04-04T03:19:41.880Z,71.31
2023-04-04T03:22:08.245Z,71.38
2023-04-04T03:24:37.182Z,71.83
2023-04-04T03:27:03.985Z,71.96
2023-04-04T03:29:30.524Z,72.21
2023-04-04T03:31:56.915Z,72.07
2023-04-04T03:34:24.701Z,72.22
2023-04-04T03:36:53.487Z,72.11
2023-04-04T03:39:20.212Z,72.57
2023-04-04T03:41:46.746Z,72.18
2023-04-04T03:44:13.160Z,72.61
2023-04-04T03:46:39.461Z,72.35
2023-04-04T03:49:05.888Z,72.48
2023-04-04T03:51:32.640Z,72.38
2023-04-04T03:53:58.974Z,72.43
2023-04-04T03:56:25.705Z,72.44
2023-04-04T03:58:52.194Z,72.43
2023-04-04T04:01:18.565Z,71.79
2023-04-04T04:03:44.981Z,72.03
2023-04-04T04:06:11.546Z,71.97
2023-04-04T04:08:37.874Z,72.14
2023-04-04T04:11:05.525Z,72.19
2023-04-04T04:13:31.908Z,72.15
2023-04-04T04:15:58.361Z,72.61
2023-04-04T04:18:24.853Z,72.47
2023-04-04T04:20:51.389Z,72.95
2023-04-04T04:23:17.752Z,73.30
2023-04-04T04:25:47.677Z,73.23
2023-04-04T04:28:14.107Z,72.95
2023-04-04T04:30:41.005Z,72.70
2023-04-04T04:33:08.282Z,73.30
2023-04-04T04:35:39.681Z,73.12
2023-04-04T04:38:07.010Z,73.50
2023-04-04T04:40:34.209Z,72.56
2023-04-04T04:43:00.582Z,72.66
2023-04-04T04:45:27.520Z,72.33
2023-04-04T04:47:54.571Z,72.06
2023-04-04T04:50:21.144Z,72.69
2023-04-04T04:52:50.501Z,73.55
2023-04-04T04:55:17.654Z,73.60
2023-04-04T04:57:44.040Z,74.09
2023-04-04T05:00:11.041Z,73.66
2023-04-04T05:02:37.547Z,74.25
2023-04-04T05:05:04.573Z,74.03
2023-04-04T05:07:30.964Z,73.95
2023-04-04T05:09:57.266Z,74.55
2023-04-04T05:12:23.910Z,74.41
2023-04-04T05:14:50.362Z,74.25
2023-04-04T05:17:16.847Z,74.80
2023-04-04T05:19:43.294Z,74.09
2023-04-04T05:22:09.638Z,74.41
2023-04-04T05:24:35.972Z,73.94
2023-04-04T05:27:02.348Z,74.45
2023-04-04T05:29:29.111Z,74.53
2023-04-04T05:31:55.781Z,74.07
2023-04-04T05:34:22.189Z,74.50
2023-04-04T05:36:48.479Z,74.43
2023-04-04T05:39:14.814Z,74.41
2023-04-04T05:41:41.143Z,74.22
2023-04-04T05:44:07.517Z,74.03
2023-04-04T05:46:33.947Z,74.16
2023-04-04T05:49:00.565Z,73.46
2023-04-04T05:51:26.850Z,73.26
2023-04-04T05:53:53.197Z,73.23
2023-04-04T05:56:19.579Z,73.08
2023-04-04T05:58:46.907Z,72.49
2023-04-04T06:01:13.259Z,73.10
2023-04-04T06:03:39.843Z,73.01
2023-04-04T06:06:07.156Z,72.78
2023-04-04T06:08:40.161Z,72.56
2023-04-04T06:11:16.981Z,72.22
2023-04-04T06:13:43.366Z,72.57
2023-04-04T06:16:09.760Z,72.94
2023-04-04T06:18:36.115Z,72.09
2023-04-04T06:21:02.682Z,71.52
2023-04-04T06:23:29.013Z,71.05
2023-04-04T06:25:55.436Z,70.70
2023-04-04T06:28:21.900Z,70.22
2023-04-04T06:30:48.724Z,69.88
2023-04-04T06:33:15.082Z,70.37
2023-04-04T06:35:41.601Z,69.37
2023-04-04T06:38:08.620Z,67.91
2023-04-04T06:40:35.021Z,67.38
2023-04-04T06:43:01.888Z,66.36
2023-04-04T06:45:28.531Z,65.38
2023-04-04T06:47:55.331Z,64.42
2023-04-04T06:50:22.862Z,63.85
2023-04-04T06:52:49.655Z,63.02
2023-04-04T06:55:19.432Z,62.68
2023-04-04T06:57:45.773Z,62.68
2023-04-04T07:00:12.956Z,61.61
2023-04-04T07:02:39.435Z,61.36
2023-04-04T07:05:06.567Z,60.68
2023-04-04T07:07:32.954Z,60.61
2023-04-04T07:09:59.254Z,60.32
2023-04-04T07:12:25.828Z,59.61
2023-04-04T07:14:52.744Z,59.45
2023-04-04T07:17:24.744Z,59.24
2023-04-04T07:19:51.893Z,59.44
2023-04-04T07:22:18.261Z,59.03
2023-04-04T07:24:44.902Z,58.40
2023-04-04T07:27:11.590Z,57.01
2023-04-04T07:29:37.991Z,56.49
2023-04-04T07:32:04.465Z,56.06
2023-04-04T07:34:30.918Z,56.19
2023-04-04T07:36:57.293Z,55.98
2023-04-04T07:39:23.709Z,56.32
2023-04-04T07:41:50.209Z,55.44
2023-04-04T07:44:16.600Z,55.19
2023-04-04T07:46:43.009Z,54.56
2023-04-04T07:49:09.372Z,53.88
2023-04-04T07:51:36.109Z,52.95
2023-04-04T07:54:03.144Z,52.85
2023-04-04T07:56:29.689Z,51.98
2023-04-04T07:58:56.232Z,52.52
2023-04-04T08:01:22.805Z,52.24
2023-04-04T08:03:50.342Z,51.27
2023-04-04T08:06:16.844Z,51.68
2023-04-04T08:08:43.793Z,50.71
2023-04-04T08:11:10.206Z,51.21
2023-04-04T08:13:36.769Z,50.79
2023-04-04T08:16:03.298Z,50.26
2023-04-04T08:18:29.705Z,49.11
2023-04-04T08:20:56.064Z,47.68
2023-04-04T08:23:22.532Z,47.65
2023-04-04T08:25:49.001Z,47.74
2023-04-04T08:28:15.530Z,47.85
2023-04-04T08:30:42.006Z,48.31
2023-04-04T08:33:09.316Z,47.24
2023-04-04T08:35:36.468Z,46.86
2023-04-04T08:38:06.067Z,47.02
2023-04-04T08:40:34.758Z,46.94
2023-04-04T08:43:01.762Z,46.87
2023-04-04T08:45:30.660Z,46.74
2023-04-04T08:47:59.404Z,46.31
2023-04-04T08:50:26.898Z,46.01
2023-04-04T08:52:54.605Z,46.22
2023-04-04T08:55:21.299Z,46.41
2023-04-04T08:57:47.678Z,46.10
2023-04-04T09:00:14.702Z,45.99
2023-04-04T09:03:27.496Z,45.19
2023-04-04T09:05:55.406Z,44.58
2023-04-04T09:08:24.699Z,44.46
2023-04-04T09:10:52.891Z,44.78
2023-04-04T09:13:19.825Z,44.53
2023-04-04T09:15:52.293Z,44.39
2023-04-04T09:18:19.022Z,44.12
2023-04-04T09:20:47.102Z,43.91
2023-04-04T09:23:15.647Z,44.17
2023-04-04T09:26:02.631Z,43.84
2023-04-04T09:28:31.226Z,44.28
2023-04-04T09:31:00.431Z,44.30
2023-04-04T09:33:26.865Z,44.21
2023-04-04T09:36:03.442Z,44.36
2023-04-04T09:38:31.372Z,44.02
2023-04-04T09:40:58.139Z,43.60
2023-04-04T09:43:24.949Z,43.96
2023-04-04T09:45:52.159Z,42.64
2023-04-04T09:48:32.150Z,42.63
2023-04-04T09:50:59.315Z,43.53
2023-04-04T09:53:26.220Z,42.90
2023-04-04T09:55:54.926Z,42.26
2023-04-04T09:58:28.885Z,43.22
2023-04-04T10:01:03.418Z,43.80
2023-04-04T10:03:30.882Z,42.62
2023-04-04T10:06:04.240Z,42.80
2023-04-04T10:08:32.976Z,42.55
2023-04-04T10:11:09.481Z,42.43
2023-04-04T10:13:42.147Z,42.79
2023-04-04T10:16:09.145Z,42.71
2023-04-04T10:18:36.887Z,41.97
2023-04-04T10:21:15.321Z,41.93
2023-04-04T10:23:45.573Z,42.55
2023-04-04T10:26:13.350Z,42.23
2023-04-04T10:28:42.420Z,41.78
2023-04-04T10:31:24.152Z,41.12
2023-04-04T10:34:12.876Z,41.81
2023-04-04T10:36:49.973Z,41.04
2023-04-04T10:39:36.528Z,41.03
2023-04-04T10:42:05.689Z,41.48
2023-04-04T10:44:33.976Z,41.03
2023-04-04T10:47:15.008Z,41.73
2023-04-04T10:49:44.829Z,41.09
2023-04-04T10:52:13.683Z,41.46
2023-04-04T10:54:44.788Z,41.58
2023-04-04T10:57:14.027Z,41.13
2023-04-04T11:00:12.978Z,40.49
2023-04-04T11:02:59.560Z,40.21
2023-04-04T11:05:27.261Z,39.62
2023-04-04T11:08:07.606Z,39.84
2023-04-04T11:10:41.560Z,39.52
2023-04-04T11:13:17.184Z,39.91
2023-04-04T11:15:52.583Z,39.22
2023-04-04T11:18:33.230Z,39.57
2023-04-04T11:21:05.110Z,39.49
2023-04-04T11:23:51.965Z,39.91
2023-04-04T11:26:39.593Z,39.92
2023-04-04T11:29:14.171Z,39.42
2023-04-04T11:31:43.857Z,38.48
2023-04-04T11:34:15.012Z,38.29
2023-04-04T11:36:42.996Z,38.90
2023-04-04T11:39:13.379Z,39.59
2023-04-04T11:41:52.183Z,39.82
2023-04-04T11:44:19.913Z,39.63
2023-04-04T11:46:48.546Z,39.49
2023-04-04T11:49:17.290Z,39.98
2023-04-04T11:51:43.760Z,39.22
2023-04-04T11:54:17.438Z,38.54
2023-04-04T11:56:45.166Z,38.69
2023-04-04T11:59:12.182Z,38.57
2023-04-04T12:01:39.626Z,37.11
2023-04-04T12:04:06.266Z,37.25
2023-04-04T12:06:32.780Z,37.51
2023-04-04T12:09:00.162Z,37.38
2023-04-04T12:11:28.749Z,37.23
2023-04-04T12:13:55.535Z,37.81
2023-04-04T12:16:22.094Z,37.08
2023-04-04T12:18:49.564Z,36.60
2023-04-04T12:21:16.296Z,36.31
2023-04-04T12:23:42.645Z,36.16
2023-04-04T12:26:09.485Z,36.52
2023-04-04T12:28:38.037Z,36.20
2023-04-04T12:31:06.703Z,36.30
2023-04-04T12:33:33.888Z,35.93
2023-04-04T12:36:03.350Z,34.72
2023-04-04T12:38:31.293Z,34.96
2023-04-04T12:40:58.243Z,35.27
2023-04-04T12:43:29.324Z,34.56
2023-04-04T12:45:57.989Z,34.34
2023-04-04T12:48:28.825Z,33.66
2023-04-04T12:50:59.849Z,34.10
2023-04-04T12:53:29.476Z,34.09
2023-04-04T12:56:02.286Z,34.04
2023-04-04T12:58:29.290Z,33.20
2023-04-04T13:01:00.650Z,33.23
2023-04-04T13:03:28.741Z,33.02
2023-04-04T13:05:55.202Z,33.12
2023-04-04T13:08:22.016Z,32.76
2023-04-04T13:10:59.823Z,33.39
2023-04-04T13:13:36.832Z,32.22
2023-04-04T13:16:06.238Z,32.75
2023-04-04T13:18:37.330Z,31.87
2023-04-04T13:21:07.082Z,31.83
2023-04-04T13:23:35.896Z,31.25
2023-04-04T13:26:04.453Z,30.75
2023-04-04T13:28:31.265Z,29.70
2023-04-04T13:30:58.044Z,30.08
2023-04-04T13:33:24.465Z,30.22
2023-04-04T13:35:51.504Z,30.02
2023-04-04T13:38:17.946Z,30.37
2023-04-04T13:40:44.668Z,30.68
2023-04-04T13:43:12.699Z,30.56
2023-04-04T13:45:39.390Z,30.16
2023-04-04T13:48:05.980Z,30.36
2023-04-04T13:50:33.088Z,30.25
2023-04-04T13:52:59.602Z,29.48
2023-04-04T13:55:26.578Z,28.88
2023-04-04T13:57:52.951Z,28.35
2023-04-04T14:00:19.507Z,28.88
2023-04-04T14:02:46.571Z,29.03
2023-04-04T14:05:13.084Z,28.41
2023-04-04T14:07:39.491Z,27.93
2023-04-04T14:10:06.955Z,26.66
2023-04-04T14:12:34.103Z,26.26
2023-04-04T14:15:00.450Z,27.02
2023-04-04T14:17:27.142Z,26.48
2023-04-04T14:19:53.586Z,26.58
2023-04-04T14:22:19.932Z,26.43
2023-04-04T14:24:46.259Z,26.47
2023-04-04T14:27:12.762Z,27.03
2023-04-04T14:29:39.274Z,26.98
2023-04-04T14:32:05.873Z,27.00
2023-04-04T14:34:32.258Z,26.84
2023-04-04T14:36:59.767Z,26.36
2023-04-04T14:39:26.564Z,26.51
2023-04-04T14:41:53.019Z,26.14
2023-04-04T14:44:21.199Z,26.21
2023-04-04T14:46:47.639Z,26.42
2023-04-04T14:49:14.158Z,26.24
2023-04-04T14:51:40.906Z,26.55
2023-04-04T14:54:07.266Z,26.30
2023-04-04T14:56:33.742Z,26.49
2023-04-04T14:59:01.805Z,26.89
2023-04-04T15:01:29.082Z,27.13
2023-04-04T15:03:56.307Z,27.53
2023-04-04T15:06:22.916Z,28.04
2023-04-04T15:08:49.904Z,28.30
2023-04-04T15:11:16.629Z,28.28
2023-04-04T15:13:44.036Z,28.57
2023-04-04T15:16:10.669Z,29.10
2023-04-04T15:18:38.020Z,29.90
2023-04-04T15:21:05.010Z,29.93
2023-04-04T15:23:31.338Z,29.70
2023-04-04T15:25:57.778Z,28.97
2023-04-04T15:28:24.125Z,29.23
2023-04-04T15:30:50.738Z,29.71
2023-04-04T15:33:17.244Z,30.55
2023-04-04T15:35:43.651Z,31.29
2023-04-04T15:38:10.135Z,31.92
2023-04-04T15:40:36.520Z,32.04
2023-04-04T15:43:02.929Z,31.70
2023-04-04T15:45:29.411Z,31.84
2023-04-04T15:47:55.897Z,31.57
2023-04-04T15:50:22.403Z,31.91
2023-04-04T15:52:48.733Z,32.37
2023-04-04T15:55:17.014Z,32.85
2023-04-04T15:57:44.756Z,33.19
2023-04-04T16:00:13.221Z,33.37
2023-04-04T16:02:39.826Z,33.64
2023-04-04T16:05:06.962Z,33.88
2023-04-04T16:07:33.331Z,34.26
2023-04-04T16:09:59.649Z,35.06
2023-04-04T16:12:26.388Z,35.36
2023-04-04T16:14:52.729Z,35.01
2023-04-04T16:17:19.093Z,35.18
2023-04-04T16:19:46.260Z,35.28
2023-04-04T16:22:15.141Z,35.36
2023-04-04T16:24:41.595Z,35.09
2023-04-04T16:27:07.923Z,35.51
2023-04-04T16:29:34.343Z,36.02
2023-04-04T16:32:00.723Z,35.37
2023-04-04T16:34:27.108Z,36.08
2023-04-04T16:36:53.433Z,35.91
2023-04-04T16:39:20.158Z,36.04
2023-04-04T16:41:46.535Z,35.83
2023-04-04T16:44:15.631Z,36.09
2023-04-04T16:46:42.165Z,36.04
2023-04-04T16:49:09.363Z,36.18
2023-04-04T16:51:35.791Z,36.48
2023-04-04T16:54:02.168Z,36.23
2023-04-04T16:56:28.495Z,36.90
2023-04-04T16:58:54.928Z,36.64
2023-04-04T17:01:23.020Z,37.70
2023-04-04T17:03:49.762Z,37.00
2023-04-04T17:06:16.199Z,36.96
2023-04-04T17:08:44.924Z,37.46
2023-04-04T17:11:12.970Z,37.75
2023-04-04T17:13:39.302Z,37.87
2023-04-04T17:16:05.820Z,38.06
2023-04-04T17:18:32.244Z,38.17
2023-04-04T17:20:58.641Z,38.44
2023-04-04T17:23:25.013Z,37.90
2023-04-04T17:25:51.440Z,38.02
2023-04-04T17:28:19.260Z,37.81
2023-04-04T17:30:46.071Z,38.06
2023-04-04T17:33:14.451Z,38.26
2023-04-04T17:35:40.916Z,37.97
2023-04-04T17:38:07.330Z,38.08
2023-04-04T17:40:36.224Z,38.21
2023-04-04T17:43:02.560Z,38.49
2023-04-04T17:45:29.434Z,38.76
2023-04-04T17:47:55.765Z,38.86
2023-04-04T17:50:22.546Z,38.87
2023-04-04T17:52:48.880Z,38.99
2023-04-04T17:55:16.370Z,39.04
2023-04-04T17:57:44.872Z,39.38
2023-04-04T18:00:12.759Z,39.34
2023-04-04T18:02:39.187Z,39.13
2023-04-04T18:05:06.858Z,39.78
2023-04-04T18:07:33.361Z,39.45
2023-04-04T18:09:59.722Z,40.13
2023-04-04T18:12:30.130Z,40.36
2023-04-04T18:14:56.595Z,40.61
2023-04-04T18:17:23.715Z,40.52
2023-04-04T18:19:50.074Z,40.41
2023-04-04T18:22:16.520Z,40.20
2023-04-04T18:24:42.876Z,40.78
2023-04-04T18:27:10.223Z,41.37
2023-04-04T18:29:36.553Z,41.12
2023-04-04T18:32:03.723Z,41.44
2023-04-04T18:34:30.489Z,41.45
2023-04-04T18:36:56.788Z,41.89
2023-04-04T18:39:23.444Z,42.04
2023-04-04T18:41:50.080Z,41.95
2023-04-04T18:44:16.440Z,42.13
2023-04-04T18:46:42.927Z,42.38
2023-04-04T18:49:09.412Z,42.48
2023-04-04T18:51:35.767Z,42.42
2023-04-04T18:54:04.216Z,42.55
2023-04-04T18:56:30.574Z,42.51
2023-04-04T18:58:56.962Z,41.77
2023-04-04T19:01:24.370Z,42.70
2023-04-04T19:03:55.280Z,42.55
2023-04-04T19:06:26.644Z,43.00
2023-04-04T19:08:54.385Z,42.75
2023-04-04T19:11:20.790Z,42.66
2023-04-04T19:13:47.133Z,43.24
2023-04-04T19:16:13.484Z,42.75
2023-04-04T19:18:39.847Z,43.49
2023-04-04T19:21:07.572Z,43.20
2023-04-04T19:23:34.765Z,43.34
2023-04-04T19:26:04.209Z,44.08
2023-04-04T19:28:30.967Z,44.01
2023-04-04T19:30:57.512Z,43.87
2023-04-04T19:33:25.963Z,43.70
2023-04-04T19:35:59.089Z,44.09
2023-04-04T19:38:32.809Z,43.99
2023-04-04T19:41:01.195Z,44.01
2023-04-04T19:43:29.057Z,44.48
2023-04-04T19:45:57.681Z,44.24
2023-04-04T19:48:49.890Z,44.27
2023-04-04T19:51:22.255Z,44.09
2023-04-04T19:53:59.668Z,44.69
2023-04-04T19:56:27.865Z,45.00
2023-04-04T19:58:59.666Z,45.27
2023-04-04T20:01:28.088Z,44.84
2023-04-04T20:03:56.182Z,45.33
2023-04-04T20:06:27.868Z,45.38
2023-04-04T20:08:56.428Z,45.12
2023-04-04T20:11:30.176Z,45.30
2023-04-04T20:13:57.964Z,45.25
2023-04-04T20:16:24.956Z,45.26
2023-04-04T20:18:51.760Z,45.28
2023-04-04T20:21:27.027Z,45.61
2023-04-04T20:23:55.692Z,46.19
2023-04-04T20:26:40.857Z,46.11
2023-04-04T20:29:09.542Z,46.17
2023-04-04T20:31:52.579Z,46.01
2023-04-04T20:34:45.270Z,46.21
2023-04-04T20:37:22.469Z,46.14
2023-04-04T20:39:53.642Z,46.33
2023-04-04T20:42:20.048Z,46.52
2023-04-04T20:44:46.933Z,45.97
2023-04-04T20:47:41.617Z,46.14
2023-04-04T20:50:40.112Z,46.39
2023-04-04T20:53:07.296Z,47.01
2023-04-04T20:55:35.384Z,46.89
2023-04-04T20:58:08.733Z,47.41
2023-04-04T21:00:42.160Z,47.64
2023-04-04T21:03:11.687Z,48.11
2023-04-04T21:05:39.828Z,48.13
2023-04-04T21:08:24.602Z,48.18
2023-04-04T21:10:55.872Z,48.24
2023-04-04T21:13:38.798Z,48.24
2023-04-04T21:16:16.909Z,48.38
2023-04-04T21:18:43.639Z,48.81
2023-04-04T21:21:12.022Z,48.88
2023-04-04T21:23:52.984Z,48.89
2023-04-04T21:26:32.056Z,49.77
2023-04-04T21:29:01.084Z,50.16
2023-04-04T21:31:35.250Z,50.68
2023-04-04T21:34:08.460Z,51.27
2023-04-04T21:36:34.961Z,51.35
2023-04-04T21:39:05.795Z,50.46
2023-04-04T21:41:34.216Z,51.18
2023-04-04T21:44:02.768Z,51.34
2023-04-04T21:46:32.336Z,50.77
2023-04-04T21:48:58.861Z,50.98
2023-04-04T21:51:26.124Z,50.98
2023-04-04T21:53:52.798Z,50.87
2023-04-04T21:56:19.694Z,51.12
2023-04-04T21:58:46.136Z,51.51
2023-04-04T22:01:12.563Z,51.44
2023-04-04T22:03:40.540Z,50.68
2023-04-04T22:06:07.496Z,50.60
2023-04-04T22:08:33.897Z,50.83
2023-04-04T22:11:02.269Z,50.84
2023-04-04T22:13:35.406Z,50.71
2023-04-04T22:16:04.455Z,50.67
2023-04-04T22:18:30.981Z,50.80
2023-04-04T22:20:58.540Z,50.72
2023-04-04T22:23:25.483Z,51.15
2023-04-04T22:25:52.024Z,51.70
2023-04-04T22:28:18.412Z,51.78
2023-04-04T22:30:44.789Z,51.55
2023-04-04T22:33:11.866Z,51.32
2023-04-04T22:35:39.517Z,51.01
2023-04-04T22:38:06.348Z,51.54
2023-04-04T22:40:33.984Z,51.15
2023-04-04T22:43:01.462Z,51.03
2023-04-04T22:45:29.556Z,51.30
2023-04-04T22:47:57.835Z,51.54
2023-04-04T22:50:24.852Z,52.03
2023-04-04T22:52:54.756Z,52.68
2023-04-04T22:55:23.467Z,52.47
2023-04-04T22:57:50.334Z,52.23
2023-04-04T23:00:17.357Z,52.77
2023-04-04T23:02:46.088Z,53.09
2023-04-04T23:05:14.357Z,53.34
2023-04-04T23:07:41.386Z,53.67
2023-04-04T23:10:11.511Z,54.78
2023-04-04T23:12:38.511Z,55.35
2023-04-04T23:15:06.950Z,55.98
2023-04-04T23:17:34.395Z,55.81
2023-04-04T23:20:01.810Z,56.04
2023-04-04T23:22:28.884Z,56.69
2023-04-04T23:24:55.599Z,56.68
2023-04-04T23:27:21.981Z,57.11
2023-04-04T23:29:50.687Z,57.33
2023-04-04T23:32:17.014Z,57.72
2023-04-04T23:34:43.326Z,58.24
2023-04-04T23:37:09.762Z,58.44
2023-04-04T23:39:36.599Z,58.32
2023-04-04T23:42:03.065Z,58.81
2023-04-04T23:44:29.437Z,58.05
2023-04-04T23:46:55.890Z,58.50
2023-04-04T23:49:22.422Z,59.07
2023-04-04T23:51:48.954Z,59.62
2023-04-04T23:54:15.448Z,59.38
2023-04-04T23:56:41.791Z,59.04
2023-04-04T23:59:08.265Z,59.71
